sensor_id;sensor_type;location;lat;lon;timestamp;P1;durP1;ratioP1;P2;durP2;ratioP2
6862;SDS011;3470;48.738;9.616;2022-08-19T00:00:06;13.57;;;12.32;;
6862;SDS011;3470;48.738;9.616;2022-08-19T00:02:35;13.90;;;12.55;;
6862;SDS011;3470;48.738;9.616;2022-08-19T00:05:01;13.80;;;12.50;;
6862;SDS011;3470;48.738;9.616;2022-08-19T00:07:27;14.10;;;12.80;;
6862;SDS011;3470;48.738;9.616;2022-08-19T00:09:53;14.02;;;12.75;;
6862;SDS011;3470;48.738;9.616;2022-08-19T00:12:19;14.00;;;12.70;;
6862;SDS011;3470;48.738;9.616;2022-08-19T00:14:45;13.60;;;12.38;;
6862;SDS011;3470;48.738;9.616;2022-08-19T00:17:11;14.07;;;12.88;;
6862;SDS011;3470;48.738;9.616;2022-08-19T00:19:37;14.77;;;13.48;;
6862;SDS011;3470;48.738;9.616;2022-08-19T00:22:03;13.77;;;12.63;;
6862;SDS011;3470;48.738;9.616;2022-08-19T00:24:30;14.80;;;13.50;;
6862;SDS011;3470;48.738;9.616;2022-08-19T00:26:56;14.85;;;13.32;;
6862;SDS011;3470;48.738;9.616;2022-08-19T00:29:23;14.90;;;13.50;;
6862;SDS011;3470;48.738;9.616;2022-08-19T00:31:50;14.43;;;13.13;;
6862;SDS011;3470;48.738;9.616;2022-08-19T00:34:21;15.02;;;13.63;;
6862;SDS011;3470;48.738;9.616;2022-08-19T00:36:48;15.20;;;13.90;;
6862;SDS011;3470;48.738;9.616;2022-08-19T00:39:14;15.27;;;13.90;;
6862;SDS011;3470;48.738;9.616;2022-08-19T00:41:41;14.45;;;13.15;;
6862;SDS011;3470;48.738;9.616;2022-08-19T00:46:41;14.52;;;13.23;;
6862;SDS011;3470;48.738;9.616;2022-08-19T00:49:10;13.82;;;12.63;;
6862;SDS011;3470;48.738;9.616;2022-08-19T00:51:39;14.13;;;12.82;;
6862;SDS011;3470;48.738;9.616;2022-08-19T00:54:07;13.85;;;12.45;;
6862;SDS011;3470;48.738;9.616;2022-08-19T00:56:34;14.98;;;13.57;;
6862;SDS011;3470;48.738;9.616;2022-08-19T00:59:00;14.63;;;13.35;;
6862;SDS011;3470;48.738;9.616;2022-08-19T01:01:28;15.30;;;13.80;;
6862;SDS011;3470;48.738;9.616;2022-08-19T01:03:54;15.10;;;13.70;;
6862;SDS011;3470;48.738;9.616;2022-08-19T01:06:19;14.80;;;13.45;;
6862;SDS011;3470;48.738;9.616;2022-08-19T01:08:45;14.13;;;12.88;;
6862;SDS011;3470;48.738;9.616;2022-08-19T01:11:11;14.65;;;13.30;;
6862;SDS011;3470;48.738;9.616;2022-08-19T01:13:37;14.30;;;13.00;;
6862;SDS011;3470;48.738;9.616;2022-08-19T01:16:04;15.25;;;13.85;;
6862;SDS011;3470;48.738;9.616;2022-08-19T01:18:35;14.43;;;13.23;;
6862;SDS011;3470;48.738;9.616;2022-08-19T01:21:05;16.48;;;15.07;;
6862;SDS011;3470;48.738;9.616;2022-08-19T01:23:34;16.73;;;15.13;;
6862;SDS011;3470;48.738;9.616;2022-08-19T01:26:13;15.88;;;14.35;;
6862;SDS011;3470;48.738;9.616;2022-08-19T01:28:41;17.27;;;15.68;;
6862;SDS011;3470;48.738;9.616;2022-08-19T01:31:10;15.82;;;14.27;;
6862;SDS011;3470;48.738;9.616;2022-08-19T01:33:38;16.30;;;14.80;;
6862;SDS011;3470;48.738;9.616;2022-08-19T01:36:05;15.25;;;13.85;;
6862;SDS011;3470;48.738;9.616;2022-08-19T01:38:34;17.40;;;15.85;;
6862;SDS011;3470;48.738;9.616;2022-08-19T01:41:01;17.33;;;15.73;;
6862;SDS011;3470;48.738;9.616;2022-08-19T01:43:26;16.17;;;14.77;;
6862;SDS011;3470;48.738;9.616;2022-08-19T01:45:52;17.23;;;15.52;;
6862;SDS011;3470;48.738;9.616;2022-08-19T01:48:19;18.40;;;16.80;;
6862;SDS011;3470;48.738;9.616;2022-08-19T01:50:44;20.17;;;18.38;;
6862;SDS011;3470;48.738;9.616;2022-08-19T01:53:10;21.50;;;19.50;;
6862;SDS011;3470;48.738;9.616;2022-08-19T01:55:37;22.55;;;20.25;;
6862;SDS011;3470;48.738;9.616;2022-08-19T01:58:05;24.33;;;22.08;;
6862;SDS011;3470;48.738;9.616;2022-08-19T02:00:32;25.98;;;23.48;;
6862;SDS011;3470;48.738;9.616;2022-08-19T02:02:58;26.15;;;23.75;;
6862;SDS011;3470;48.738;9.616;2022-08-19T02:05:25;27.52;;;24.83;;
6862;SDS011;3470;48.738;9.616;2022-08-19T02:07:54;27.17;;;24.48;;
6862;SDS011;3470;48.738;9.616;2022-08-19T02:10:20;27.83;;;25.27;;
6862;SDS011;3470;48.738;9.616;2022-08-19T02:12:47;31.05;;;27.92;;
6862;SDS011;3470;48.738;9.616;2022-08-19T02:15:14;30.90;;;27.92;;
6862;SDS011;3470;48.738;9.616;2022-08-19T02:17:40;32.65;;;29.50;;
6862;SDS011;3470;48.738;9.616;2022-08-19T02:20:07;32.72;;;29.42;;
6862;SDS011;3470;48.738;9.616;2022-08-19T02:22:33;32.45;;;29.30;;
6862;SDS011;3470;48.738;9.616;2022-08-19T02:25:00;34.30;;;30.70;;
6862;SDS011;3470;48.738;9.616;2022-08-19T02:27:26;36.38;;;32.58;;
6862;SDS011;3470;48.738;9.616;2022-08-19T02:32:20;34.72;;;31.13;;
6862;SDS011;3470;48.738;9.616;2022-08-19T02:34:46;35.83;;;32.13;;
6862;SDS011;3470;48.738;9.616;2022-08-19T02:37:12;37.65;;;32.65;;
6862;SDS011;3470;48.738;9.616;2022-08-19T02:39:57;37.45;;;33.60;;
6862;SDS011;3470;48.738;9.616;2022-08-19T02:42:23;39.72;;;33.72;;
6862;SDS011;3470;48.738;9.616;2022-08-19T02:44:48;36.38;;;32.65;;
6862;SDS011;3470;48.738;9.616;2022-08-19T02:47:14;37.83;;;33.85;;
6862;SDS011;3470;48.738;9.616;2022-08-19T02:49:41;37.47;;;33.70;;
6862;SDS011;3470;48.738;9.616;2022-08-19T02:52:06;37.47;;;33.78;;
6862;SDS011;3470;48.738;9.616;2022-08-19T02:54:32;39.47;;;35.38;;
6862;SDS011;3470;48.738;9.616;2022-08-19T02:56:58;39.33;;;35.05;;
6862;SDS011;3470;48.738;9.616;2022-08-19T02:59:24;43.20;;;36.33;;
6862;SDS011;3470;48.738;9.616;2022-08-19T03:01:51;41.15;;;36.45;;
6862;SDS011;3470;48.738;9.616;2022-08-19T03:04:17;42.08;;;37.20;;
6862;SDS011;3470;48.738;9.616;2022-08-19T03:06:45;46.35;;;38.95;;
6862;SDS011;3470;48.738;9.616;2022-08-19T03:09:11;42.35;;;37.75;;
6862;SDS011;3470;48.738;9.616;2022-08-19T03:11:38;42.05;;;37.22;;
6862;SDS011;3470;48.738;9.616;2022-08-19T03:14:05;44.05;;;37.33;;
6862;SDS011;3470;48.738;9.616;2022-08-19T03:16:32;43.28;;;37.97;;
6862;SDS011;3470;48.738;9.616;2022-08-19T03:18:59;44.08;;;36.10;;
6862;SDS011;3470;48.738;9.616;2022-08-19T03:21:26;45.28;;;38.42;;
6862;SDS011;3470;48.738;9.616;2022-08-19T03:23:54;45.78;;;39.30;;
6862;SDS011;3470;48.738;9.616;2022-08-19T03:26:20;43.58;;;37.58;;
6862;SDS011;3470;48.738;9.616;2022-08-19T03:28:46;44.10;;;37.88;;
6862;SDS011;3470;48.738;9.616;2022-08-19T03:31:14;43.17;;;35.72;;
6862;SDS011;3470;48.738;9.616;2022-08-19T03:33:46;40.80;;;36.40;;
6862;SDS011;3470;48.738;9.616;2022-08-19T03:36:13;43.90;;;37.13;;
6862;SDS011;3470;48.738;9.616;2022-08-19T03:38:43;45.47;;;37.65;;
6862;SDS011;3470;48.738;9.616;2022-08-19T03:41:14;42.42;;;35.13;;
6862;SDS011;3470;48.738;9.616;2022-08-19T03:43:42;40.45;;;34.15;;
6862;SDS011;3470;48.738;9.616;2022-08-19T03:46:12;32.78;;;29.42;;
6862;SDS011;3470;48.738;9.616;2022-08-19T03:48:40;33.10;;;29.70;;
6862;SDS011;3470;48.738;9.616;2022-08-19T03:51:07;30.05;;;26.90;;
6862;SDS011;3470;48.738;9.616;2022-08-19T03:53:40;31.67;;;28.38;;
6862;SDS011;3470;48.738;9.616;2022-08-19T03:56:06;33.03;;;28.75;;
6862;SDS011;3470;48.738;9.616;2022-08-19T03:58:34;32.65;;;29.13;;
6862;SDS011;3470;48.738;9.616;2022-08-19T04:01:00;34.55;;;30.88;;
6862;SDS011;3470;48.738;9.616;2022-08-19T04:03:26;36.97;;;33.13;;
6862;SDS011;3470;48.738;9.616;2022-08-19T04:05:52;36.70;;;32.78;;
6862;SDS011;3470;48.738;9.616;2022-08-19T04:08:18;36.47;;;32.30;;
6862;SDS011;3470;48.738;9.616;2022-08-19T04:10:47;36.80;;;32.83;;
6862;SDS011;3470;48.738;9.616;2022-08-19T04:13:17;37.50;;;33.42;;
6862;SDS011;3470;48.738;9.616;2022-08-19T04:15:44;34.92;;;31.15;;
6862;SDS011;3470;48.738;9.616;2022-08-19T04:18:12;39.63;;;32.95;;
6862;SDS011;3470;48.738;9.616;2022-08-19T04:20:42;40.53;;;34.00;;
6862;SDS011;3470;48.738;9.616;2022-08-19T04:23:10;35.50;;;31.88;;
6862;SDS011;3470;48.738;9.616;2022-08-19T04:25:38;33.85;;;30.30;;
6862;SDS011;3470;48.738;9.616;2022-08-19T04:28:05;35.00;;;31.30;;
6862;SDS011;3470;48.738;9.616;2022-08-19T04:30:36;37.28;;;31.50;;
6862;SDS011;3470;48.738;9.616;2022-08-19T04:33:04;36.97;;;30.25;;
6862;SDS011;3470;48.738;9.616;2022-08-19T04:35:34;32.40;;;28.38;;
6862;SDS011;3470;48.738;9.616;2022-08-19T04:38:04;31.48;;;27.05;;
6862;SDS011;3470;48.738;9.616;2022-08-19T04:40:30;29.60;;;24.88;;
6862;SDS011;3470;48.738;9.616;2022-08-19T04:43:14;27.70;;;24.67;;
6862;SDS011;3470;48.738;9.616;2022-08-19T04:45:40;26.95;;;24.13;;
6862;SDS011;3470;48.738;9.616;2022-08-19T04:48:09;26.15;;;23.00;;
6862;SDS011;3470;48.738;9.616;2022-08-19T04:50:36;25.80;;;23.02;;
6862;SDS011;3470;48.738;9.616;2022-08-19T04:53:05;29.52;;;24.60;;
6862;SDS011;3470;48.738;9.616;2022-08-19T04:55:31;28.60;;;24.55;;
6862;SDS011;3470;48.738;9.616;2022-08-19T04:57:56;27.80;;;23.35;;
6862;SDS011;3470;48.738;9.616;2022-08-19T05:00:22;26.48;;;23.52;;
6862;SDS011;3470;48.738;9.616;2022-08-19T05:02:48;26.98;;;24.00;;
6862;SDS011;3470;48.738;9.616;2022-08-19T05:05:14;28.27;;;24.17;;
6862;SDS011;3470;48.738;9.616;2022-08-19T05:07:40;27.90;;;24.90;;
6862;SDS011;3470;48.738;9.616;2022-08-19T05:10:06;25.13;;;22.42;;
6862;SDS011;3470;48.738;9.616;2022-08-19T05:12:32;26.52;;;23.05;;
6862;SDS011;3470;48.738;9.616;2022-08-19T05:14:58;26.27;;;23.42;;
6862;SDS011;3470;48.738;9.616;2022-08-19T05:17:25;27.42;;;23.45;;
6862;SDS011;3470;48.738;9.616;2022-08-19T05:19:51;28.80;;;25.70;;
6862;SDS011;3470;48.738;9.616;2022-08-19T05:22:35;32.25;;;27.73;;
6862;SDS011;3470;48.738;9.616;2022-08-19T05:25:03;32.58;;;29.13;;
6862;SDS011;3470;48.738;9.616;2022-08-19T05:27:31;35.83;;;31.20;;
6862;SDS011;3470;48.738;9.616;2022-08-19T05:29:57;36.85;;;30.88;;
6862;SDS011;3470;48.738;9.616;2022-08-19T05:32:23;35.58;;;31.27;;
6862;SDS011;3470;48.738;9.616;2022-08-19T05:34:49;40.17;;;32.83;;
6862;SDS011;3470;48.738;9.616;2022-08-19T05:37:14;35.47;;;30.98;;
6862;SDS011;3470;48.738;9.616;2022-08-19T05:39:40;36.58;;;31.17;;
6862;SDS011;3470;48.738;9.616;2022-08-19T05:42:07;34.13;;;30.30;;
6862;SDS011;3470;48.738;9.616;2022-08-19T05:44:36;34.22;;;29.63;;
6862;SDS011;3470;48.738;9.616;2022-08-19T05:47:05;36.47;;;30.65;;
6862;SDS011;3470;48.738;9.616;2022-08-19T05:49:33;37.50;;;30.00;;
6862;SDS011;3470;48.738;9.616;2022-08-19T05:52:01;35.20;;;31.40;;
6862;SDS011;3470;48.738;9.616;2022-08-19T05:54:29;36.60;;;31.52;;
6862;SDS011;3470;48.738;9.616;2022-08-19T05:56:55;35.35;;;28.83;;
6862;SDS011;3470;48.738;9.616;2022-08-19T05:59:20;33.28;;;28.75;;
6862;SDS011;3470;48.738;9.616;2022-08-19T06:01:46;36.03;;;28.38;;
6862;SDS011;3470;48.738;9.616;2022-08-19T06:04:17;31.27;;;26.85;;
6862;SDS011;3470;48.738;9.616;2022-08-19T06:06:44;31.60;;;26.77;;
6862;SDS011;3470;48.738;9.616;2022-08-19T06:09:12;30.27;;;26.45;;
6862;SDS011;3470;48.738;9.616;2022-08-19T06:11:39;31.05;;;25.35;;
6862;SDS011;3470;48.738;9.616;2022-08-19T06:14:12;32.92;;;25.95;;
6862;SDS011;3470;48.738;9.616;2022-08-19T06:16:43;30.38;;;24.67;;
6862;SDS011;3470;48.738;9.616;2022-08-19T06:19:11;30.65;;;25.80;;
6862;SDS011;3470;48.738;9.616;2022-08-19T06:21:40;28.60;;;25.45;;
6862;SDS011;3470;48.738;9.616;2022-08-19T06:24:09;30.52;;;26.33;;
6862;SDS011;3470;48.738;9.616;2022-08-19T06:26:37;29.20;;;26.02;;
6862;SDS011;3470;48.738;9.616;2022-08-19T06:29:05;29.38;;;24.48;;
6862;SDS011;3470;48.738;9.616;2022-08-19T06:31:33;28.92;;;23.80;;
6862;SDS011;3470;48.738;9.616;2022-08-19T06:34:00;26.48;;;23.02;;
6862;SDS011;3470;48.738;9.616;2022-08-19T06:36:33;27.45;;;24.58;;
6862;SDS011;3470;48.738;9.616;2022-08-19T06:39:05;30.67;;;25.50;;
6862;SDS011;3470;48.738;9.616;2022-08-19T06:41:34;27.23;;;24.27;;
6862;SDS011;3470;48.738;9.616;2022-08-19T06:44:06;27.77;;;24.73;;
6862;SDS011;3470;48.738;9.616;2022-08-19T06:46:32;28.92;;;24.83;;
6862;SDS011;3470;48.738;9.616;2022-08-19T06:48:58;31.73;;;25.42;;
6862;SDS011;3470;48.738;9.616;2022-08-19T06:51:24;25.25;;;22.45;;
6862;SDS011;3470;48.738;9.616;2022-08-19T06:53:51;31.02;;;24.70;;
6862;SDS011;3470;48.738;9.616;2022-08-19T06:56:19;31.58;;;26.15;;
6862;SDS011;3470;48.738;9.616;2022-08-19T06:58:47;31.10;;;27.65;;
6862;SDS011;3470;48.738;9.616;2022-08-19T07:01:16;33.40;;;29.20;;
6862;SDS011;3470;48.738;9.616;2022-08-19T07:03:42;31.35;;;26.92;;
6862;SDS011;3470;48.738;9.616;2022-08-19T07:06:09;30.30;;;26.98;;
6862;SDS011;3470;48.738;9.616;2022-08-19T07:08:37;30.92;;;27.23;;
6862;SDS011;3470;48.738;9.616;2022-08-19T07:11:07;34.65;;;28.45;;
6862;SDS011;3470;48.738;9.616;2022-08-19T07:13:34;32.85;;;27.00;;
6862;SDS011;3470;48.738;9.616;2022-08-19T07:16:05;29.90;;;26.25;;
6862;SDS011;3470;48.738;9.616;2022-08-19T07:18:32;31.00;;;27.55;;
6862;SDS011;3470;48.738;9.616;2022-08-19T07:21:05;34.53;;;28.80;;
6862;SDS011;3470;48.738;9.616;2022-08-19T07:23:33;34.95;;;29.77;;
6862;SDS011;3470;48.738;9.616;2022-08-19T07:26:04;32.10;;;27.08;;
6862;SDS011;3470;48.738;9.616;2022-08-19T07:28:31;31.20;;;28.02;;
6862;SDS011;3470;48.738;9.616;2022-08-19T07:30:57;32.45;;;27.35;;
6862;SDS011;3470;48.738;9.616;2022-08-19T07:33:22;36.28;;;29.00;;
6862;SDS011;3470;48.738;9.616;2022-08-19T07:35:48;34.83;;;30.38;;
6862;SDS011;3470;48.738;9.616;2022-08-19T07:38:15;34.17;;;29.02;;
6862;SDS011;3470;48.738;9.616;2022-08-19T07:40:41;33.08;;;29.48;;
6862;SDS011;3470;48.738;9.616;2022-08-19T07:43:08;35.88;;;28.85;;
6862;SDS011;3470;48.738;9.616;2022-08-19T07:45:34;34.03;;;29.67;;
6862;SDS011;3470;48.738;9.616;2022-08-19T07:47:59;32.20;;;28.67;;
6862;SDS011;3470;48.738;9.616;2022-08-19T07:50:26;34.92;;;29.27;;
6862;SDS011;3470;48.738;9.616;2022-08-19T07:52:51;32.65;;;28.80;;
6862;SDS011;3470;48.738;9.616;2022-08-19T07:55:19;39.88;;;30.70;;
6862;SDS011;3470;48.738;9.616;2022-08-19T07:57:47;37.67;;;30.88;;
6862;SDS011;3470;48.738;9.616;2022-08-19T08:00:13;38.88;;;32.53;;
6862;SDS011;3470;48.738;9.616;2022-08-19T08:02:39;37.22;;;31.77;;
6862;SDS011;3470;48.738;9.616;2022-08-19T08:05:07;35.10;;;30.92;;
6862;SDS011;3470;48.738;9.616;2022-08-19T08:07:52;37.15;;;32.28;;
6862;SDS011;3470;48.738;9.616;2022-08-19T08:10:36;37.28;;;30.92;;
6862;SDS011;3470;48.738;9.616;2022-08-19T08:13:02;37.50;;;31.80;;
6862;SDS011;3470;48.738;9.616;2022-08-19T08:15:30;36.50;;;32.53;;
6862;SDS011;3470;48.738;9.616;2022-08-19T08:17:56;35.03;;;31.02;;
6862;SDS011;3470;48.738;9.616;2022-08-19T08:20:22;34.92;;;31.13;;
6862;SDS011;3470;48.738;9.616;2022-08-19T08:22:49;36.80;;;32.17;;
6862;SDS011;3470;48.738;9.616;2022-08-19T08:25:33;36.40;;;31.10;;
6862;SDS011;3470;48.738;9.616;2022-08-19T08:28:00;35.65;;;31.75;;
6862;SDS011;3470;48.738;9.616;2022-08-19T08:30:27;34.55;;;30.83;;
6862;SDS011;3470;48.738;9.616;2022-08-19T08:32:55;34.20;;;30.45;;
6862;SDS011;3470;48.738;9.616;2022-08-19T08:35:21;35.50;;;31.70;;
6862;SDS011;3470;48.738;9.616;2022-08-19T08:37:49;36.53;;;31.48;;
6862;SDS011;3470;48.738;9.616;2022-08-19T08:42:57;32.50;;;28.45;;
6862;SDS011;3470;48.738;9.616;2022-08-19T08:46:03;35.05;;;30.67;;
6862;SDS011;3470;48.738;9.616;2022-08-19T08:51:14;34.10;;;29.42;;
6862;SDS011;3470;48.738;9.616;2022-08-19T08:53:45;33.67;;;30.17;;
6862;SDS011;3470;48.738;9.616;2022-08-19T08:56:13;35.70;;;30.73;;
6862;SDS011;3470;48.738;9.616;2022-08-19T08:58:42;34.88;;;30.25;;
6862;SDS011;3470;48.738;9.616;2022-08-19T09:01:13;33.13;;;29.52;;
6862;SDS011;3470;48.738;9.616;2022-08-19T09:03:40;33.53;;;29.85;;
6862;SDS011;3470;48.738;9.616;2022-08-19T09:06:31;32.92;;;29.42;;
6862;SDS011;3470;48.738;9.616;2022-08-19T09:17:13;32.55;;;29.10;;
6862;SDS011;3470;48.738;9.616;2022-08-19T09:19:49;33.92;;;30.23;;
6862;SDS011;3470;48.738;9.616;2022-08-19T09:22:20;33.67;;;30.08;;
6862;SDS011;3470;48.738;9.616;2022-08-19T09:24:47;37.42;;;31.77;;
6862;SDS011;3470;48.738;9.616;2022-08-19T09:27:15;33.53;;;29.98;;
6862;SDS011;3470;48.738;9.616;2022-08-19T09:29:41;33.72;;;30.13;;
6862;SDS011;3470;48.738;9.616;2022-08-19T09:32:07;34.90;;;28.95;;
6862;SDS011;3470;48.738;9.616;2022-08-19T09:34:32;37.22;;;31.20;;
6862;SDS011;3470;48.738;9.616;2022-08-19T09:36:58;33.45;;;29.80;;
6862;SDS011;3470;48.738;9.616;2022-08-19T09:39:25;33.58;;;29.33;;
6862;SDS011;3470;48.738;9.616;2022-08-19T09:41:50;34.45;;;30.83;;
6862;SDS011;3470;48.738;9.616;2022-08-19T09:44:17;34.35;;;30.73;;
6862;SDS011;3470;48.738;9.616;2022-08-19T09:46:45;36.10;;;32.22;;
6862;SDS011;3470;48.738;9.616;2022-08-19T09:49:15;37.80;;;30.27;;
6862;SDS011;3470;48.738;9.616;2022-08-19T09:51:42;33.88;;;30.00;;
6862;SDS011;3470;48.738;9.616;2022-08-19T09:54:07;34.83;;;30.73;;
6862;SDS011;3470;48.738;9.616;2022-08-19T09:56:33;40.70;;;32.00;;
6862;SDS011;3470;48.738;9.616;2022-08-19T09:59:00;35.45;;;30.42;;
6862;SDS011;3470;48.738;9.616;2022-08-19T10:01:28;35.05;;;31.30;;
6862;SDS011;3470;48.738;9.616;2022-08-19T10:03:55;34.72;;;30.67;;
6862;SDS011;3470;48.738;9.616;2022-08-19T10:06:24;37.22;;;31.58;;
6862;SDS011;3470;48.738;9.616;2022-08-19T10:08:51;35.05;;;31.08;;
6862;SDS011;3470;48.738;9.616;2022-08-19T10:11:18;38.45;;;30.95;;
6862;SDS011;3470;48.738;9.616;2022-08-19T10:13:44;32.78;;;29.17;;
6862;SDS011;3470;48.738;9.616;2022-08-19T10:16:13;34.92;;;29.77;;
6862;SDS011;3470;48.738;9.616;2022-08-19T10:18:41;31.35;;;28.05;;
6862;SDS011;3470;48.738;9.616;2022-08-19T10:21:12;31.30;;;28.05;;
6862;SDS011;3470;48.738;9.616;2022-08-19T10:23:42;29.90;;;26.60;;
6862;SDS011;3470;48.738;9.616;2022-08-19T10:26:10;29.33;;;26.23;;
6862;SDS011;3470;48.738;9.616;2022-08-19T10:28:38;31.02;;;26.92;;
6862;SDS011;3470;48.738;9.616;2022-08-19T10:31:05;27.52;;;24.70;;
6862;SDS011;3470;48.738;9.616;2022-08-19T10:33:32;29.10;;;26.00;;
6862;SDS011;3470;48.738;9.616;2022-08-19T10:35:59;29.52;;;25.25;;
6862;SDS011;3470;48.738;9.616;2022-08-19T10:38:25;29.73;;;25.27;;
6862;SDS011;3470;48.738;9.616;2022-08-19T10:40:51;27.17;;;24.00;;
6862;SDS011;3470;48.738;9.616;2022-08-19T10:43:18;27.73;;;24.60;;
6862;SDS011;3470;48.738;9.616;2022-08-19T10:45:43;27.80;;;24.25;;
6862;SDS011;3470;48.738;9.616;2022-08-19T10:48:17;26.25;;;23.45;;
6862;SDS011;3470;48.738;9.616;2022-08-19T10:50:42;29.73;;;25.60;;
6862;SDS011;3470;48.738;9.616;2022-08-19T10:53:26;26.50;;;23.13;;
6862;SDS011;3470;48.738;9.616;2022-08-19T10:55:52;26.10;;;23.25;;
6862;SDS011;3470;48.738;9.616;2022-08-19T10:58:36;29.25;;;26.30;;
6862;SDS011;3470;48.738;9.616;2022-08-19T11:01:02;28.80;;;25.80;;
6862;SDS011;3470;48.738;9.616;2022-08-19T11:03:27;27.90;;;25.00;;
6862;SDS011;3470;48.738;9.616;2022-08-19T11:05:58;29.00;;;25.77;;
6862;SDS011;3470;48.738;9.616;2022-08-19T11:08:25;31.25;;;26.77;;
6862;SDS011;3470;48.738;9.616;2022-08-19T11:10:52;32.05;;;28.52;;
6862;SDS011;3470;48.738;9.616;2022-08-19T11:13:25;34.30;;;30.73;;
6862;SDS011;3470;48.738;9.616;2022-08-19T11:16:02;32.63;;;29.20;;
6862;SDS011;3470;48.738;9.616;2022-08-19T11:18:37;36.60;;;32.38;;
6862;SDS011;3470;48.738;9.616;2022-08-19T11:21:18;34.25;;;30.38;;
6862;SDS011;3470;48.738;9.616;2022-08-19T11:23:47;34.70;;;30.92;;
6862;SDS011;3470;48.738;9.616;2022-08-19T11:26:15;39.35;;;32.42;;
6862;SDS011;3470;48.738;9.616;2022-08-19T11:28:41;37.95;;;32.40;;
6862;SDS011;3470;48.738;9.616;2022-08-19T11:31:11;34.63;;;30.55;;
6862;SDS011;3470;48.738;9.616;2022-08-19T11:33:38;37.20;;;32.17;;
6862;SDS011;3470;48.738;9.616;2022-08-19T11:36:04;36.60;;;32.60;;
6862;SDS011;3470;48.738;9.616;2022-08-19T11:38:30;37.58;;;32.22;;
6862;SDS011;3470;48.738;9.616;2022-08-19T11:41:00;36.28;;;32.53;;
6862;SDS011;3470;48.738;9.616;2022-08-19T11:43:27;37.00;;;33.00;;
6862;SDS011;3470;48.738;9.616;2022-08-19T11:45:54;37.58;;;33.35;;
6862;SDS011;3470;48.738;9.616;2022-08-19T11:48:20;39.83;;;35.42;;
6862;SDS011;3470;48.738;9.616;2022-08-19T11:50:50;44.80;;;37.15;;
6862;SDS011;3470;48.738;9.616;2022-08-19T11:53:17;45.38;;;38.63;;
6862;SDS011;3470;48.738;9.616;2022-08-19T11:55:45;48.95;;;40.00;;
6862;SDS011;3470;48.738;9.616;2022-08-19T11:58:12;44.78;;;37.72;;
6862;SDS011;3470;48.738;9.616;2022-08-19T12:00:39;49.13;;;40.53;;
6862;SDS011;3470;48.738;9.616;2022-08-19T12:03:05;49.63;;;41.25;;
6862;SDS011;3470;48.738;9.616;2022-08-19T12:05:31;53.70;;;41.65;;
6862;SDS011;3470;48.738;9.616;2022-08-19T12:07:57;51.53;;;41.90;;
6862;SDS011;3470;48.738;9.616;2022-08-19T12:10:23;51.47;;;41.83;;
6862;SDS011;3470;48.738;9.616;2022-08-19T12:12:49;54.40;;;44.13;;
6862;SDS011;3470;48.738;9.616;2022-08-19T12:15:15;53.85;;;42.67;;
6862;SDS011;3470;48.738;9.616;2022-08-19T12:17:41;53.13;;;41.90;;
6862;SDS011;3470;48.738;9.616;2022-08-19T12:20:08;53.95;;;43.90;;
6862;SDS011;3470;48.738;9.616;2022-08-19T12:22:38;54.33;;;43.25;;
6862;SDS011;3470;48.738;9.616;2022-08-19T12:25:06;51.90;;;43.08;;
6862;SDS011;3470;48.738;9.616;2022-08-19T12:27:33;48.83;;;41.72;;
6862;SDS011;3470;48.738;9.616;2022-08-19T12:30:01;54.60;;;42.55;;
6862;SDS011;3470;48.738;9.616;2022-08-19T12:32:28;54.10;;;43.65;;
6862;SDS011;3470;48.738;9.616;2022-08-19T12:34:53;56.65;;;43.95;;
6862;SDS011;3470;48.738;9.616;2022-08-19T12:37:19;54.72;;;43.30;;
6862;SDS011;3470;48.738;9.616;2022-08-19T12:39:45;55.00;;;42.90;;
6862;SDS011;3470;48.738;9.616;2022-08-19T12:42:11;55.50;;;43.88;;
6862;SDS011;3470;48.738;9.616;2022-08-19T12:44:38;58.75;;;43.70;;
6862;SDS011;3470;48.738;9.616;2022-08-19T12:47:06;56.08;;;44.08;;
6862;SDS011;3470;48.738;9.616;2022-08-19T12:49:32;56.15;;;43.70;;
6862;SDS011;3470;48.738;9.616;2022-08-19T12:52:02;53.58;;;41.53;;
6862;SDS011;3470;48.738;9.616;2022-08-19T12:54:29;50.92;;;40.05;;
6862;SDS011;3470;48.738;9.616;2022-08-19T12:56:55;53.20;;;41.50;;
6862;SDS011;3470;48.738;9.616;2022-08-19T12:59:22;49.95;;;39.78;;
6862;SDS011;3470;48.738;9.616;2022-08-19T13:01:47;54.40;;;40.67;;
6862;SDS011;3470;48.738;9.616;2022-08-19T13:04:13;55.28;;;42.10;;
6862;SDS011;3470;48.738;9.616;2022-08-19T13:06:40;58.78;;;44.05;;
6862;SDS011;3470;48.738;9.616;2022-08-19T13:09:06;46.38;;;39.38;;
6862;SDS011;3470;48.738;9.616;2022-08-19T13:11:31;52.85;;;42.47;;
6862;SDS011;3470;48.738;9.616;2022-08-19T13:13:58;55.45;;;42.55;;
6862;SDS011;3470;48.738;9.616;2022-08-19T13:16:25;54.65;;;42.42;;
6862;SDS011;3470;48.738;9.616;2022-08-19T13:18:53;52.42;;;40.20;;
6862;SDS011;3470;48.738;9.616;2022-08-19T13:21:21;50.70;;;40.42;;
6862;SDS011;3470;48.738;9.616;2022-08-19T13:23:48;52.30;;;42.00;;
6862;SDS011;3470;48.738;9.616;2022-08-19T13:26:15;45.85;;;37.60;;
6862;SDS011;3470;48.738;9.616;2022-08-19T13:28:41;55.05;;;42.60;;
6862;SDS011;3470;48.738;9.616;2022-08-19T13:31:31;59.30;;;43.20;;
6862;SDS011;3470;48.738;9.616;2022-08-19T13:34:18;53.67;;;41.28;;
6862;SDS011;3470;48.738;9.616;2022-08-19T13:36:46;56.85;;;42.40;;
6862;SDS011;3470;48.738;9.616;2022-08-19T13:39:11;59.75;;;43.70;;
6862;SDS011;3470;48.738;9.616;2022-08-19T13:41:42;60.53;;;43.92;;
6862;SDS011;3470;48.738;9.616;2022-08-19T13:44:12;62.95;;;45.13;;
6862;SDS011;3470;48.738;9.616;2022-08-19T13:46:38;64.40;;;46.17;;
6862;SDS011;3470;48.738;9.616;2022-08-19T13:49:04;67.63;;;48.58;;
6862;SDS011;3470;48.738;9.616;2022-08-19T13:51:30;72.15;;;49.47;;
6862;SDS011;3470;48.738;9.616;2022-08-19T13:53:55;69.75;;;48.67;;
6862;SDS011;3470;48.738;9.616;2022-08-19T13:56:21;67.65;;;48.40;;
6862;SDS011;3470;48.738;9.616;2022-08-19T13:58:47;71.75;;;50.17;;
6862;SDS011;3470;48.738;9.616;2022-08-19T14:01:12;68.47;;;49.28;;
6862;SDS011;3470;48.738;9.616;2022-08-19T14:03:44;72.47;;;49.70;;
6862;SDS011;3470;48.738;9.616;2022-08-19T14:06:10;63.20;;;46.13;;
6862;SDS011;3470;48.738;9.616;2022-08-19T14:08:35;59.97;;;44.95;;
6862;SDS011;3470;48.738;9.616;2022-08-19T14:11:04;60.78;;;45.40;;
6862;SDS011;3470;48.738;9.616;2022-08-19T14:13:30;63.90;;;45.40;;
6862;SDS011;3470;48.738;9.616;2022-08-19T14:15:58;67.75;;;46.25;;
6862;SDS011;3470;48.738;9.616;2022-08-19T14:18:24;72.90;;;49.28;;
6862;SDS011;3470;48.738;9.616;2022-08-19T14:20:50;61.53;;;47.13;;
6862;SDS011;3470;48.738;9.616;2022-08-19T14:23:16;64.13;;;46.53;;
6862;SDS011;3470;48.738;9.616;2022-08-19T14:25:42;73.18;;;49.47;;
6862;SDS011;3470;48.738;9.616;2022-08-19T14:28:09;67.65;;;48.45;;
6862;SDS011;3470;48.738;9.616;2022-08-19T14:30:35;69.45;;;48.70;;
6862;SDS011;3470;48.738;9.616;2022-08-19T14:33:02;79.10;;;52.42;;
6862;SDS011;3470;48.738;9.616;2022-08-19T14:35:30;78.75;;;49.92;;
6862;SDS011;3470;48.738;9.616;2022-08-19T14:37:59;69.40;;;48.92;;
6862;SDS011;3470;48.738;9.616;2022-08-19T14:40:27;83.53;;;52.35;;
6862;SDS011;3470;48.738;9.616;2022-08-19T14:42:58;75.70;;;49.53;;
6862;SDS011;3470;48.738;9.616;2022-08-19T14:45:29;74.07;;;51.40;;
6862;SDS011;3470;48.738;9.616;2022-08-19T14:47:56;66.85;;;48.97;;
6862;SDS011;3470;48.738;9.616;2022-08-19T14:50:21;76.80;;;50.63;;
6862;SDS011;3470;48.738;9.616;2022-08-19T14:52:47;80.47;;;52.45;;
6862;SDS011;3470;48.738;9.616;2022-08-19T14:55:14;70.03;;;49.97;;
6862;SDS011;3470;48.738;9.616;2022-08-19T14:57:41;72.63;;;48.70;;
6862;SDS011;3470;48.738;9.616;2022-08-19T15:00:07;67.45;;;47.72;;
6862;SDS011;3470;48.738;9.616;2022-08-19T15:02:37;69.07;;;48.75;;
6862;SDS011;3470;48.738;9.616;2022-08-19T15:05:03;59.90;;;44.85;;
6862;SDS011;3470;48.738;9.616;2022-08-19T15:07:29;58.05;;;43.47;;
6862;SDS011;3470;48.738;9.616;2022-08-19T15:09:55;60.85;;;45.15;;